Time;durP1;ratioP1;P1;durP2;ratioP2;P2;SDS_P1;SDS_P2;PMS_P1;PMS_P2;Temp;Humidity;BMP_temperature;BMP_pressure;BME280_temperature;BME280_humidity;BME280_pressure;Samples;Min_cycle;Max_cycle;Signal;HPM_P1;HPM_P2
2023/01/21 00:01:30;;;;;;;36.27;18.57;;;1.90;99.90;;;;;;4976181;28;20243;-80
2023/01/21 00:03:55;;;;;;;32.67;16.93;;;1.80;99.90;;;;;;4975827;28;20941;-80
2023/01/21 00:06:20;;;;;;;32.40;16.60;;;1.70;99.90;;;;;;4975915;28;20199;-80
2023/01/21 00:08:46;;;;;;;29.03;16.40;;;1.50;99.90;;;;;;4975837;28;20175;-80
2023/01/21 00:11:14;;;;;;;29.33;16.80;;;1.40;99.90;;;;;;4975831;28;20171;-80
2023/01/21 00:13:40;;;;;;;27.17;16.33;;;1.40;99.90;;;;;;4975728;28;20175;-80
2023/01/21 00:16:06;;;;;;;30.60;18.10;;;1.30;99.90;;;;;;4975862;28;20460;-80
2023/01/21 00:18:33;;;;;;;22.77;12.73;;;1.10;99.90;;;;;;4975939;28;20488;-79
2023/01/21 00:21:01;;;;;;;27.10;16.07;;;1.00;99.90;;;;;;4975974;28;20894;-79
2023/01/21 00:23:27;;;;;;;32.90;15.37;;;1.00;99.90;;;;;;4978230;28;20434;-79
2023/01/21 00:25:57;;;;;;;27.50;16.30;;;1.00;99.90;;;;;;4979760;28;20417;-79
2023/01/21 00:28:22;;;;;;;24.37;14.77;;;1.00;99.90;;;;;;4982319;28;20306;-79
2023/01/21 00:30:48;;;;;;;22.77;12.70;;;1.00;99.90;;;;;;5007881;28;20568;-78
2023/01/21 00:33:13;;;;;;;22.63;14.50;;;0.90;99.90;;;;;;4999382;28;20185;-78
2023/01/21 00:35:40;;;;;;;27.77;14.20;;;0.90;99.90;;;;;;4998773;28;20224;-79
2023/01/21 00:38:06;;;;;;;25.97;14.47;;;0.90;99.90;;;;;;5016824;28;20175;-79
2023/01/21 00:40:34;;;;;;;24.10;14.17;;;0.90;99.90;;;;;;4999106;28;20432;-78
2023/01/21 00:43:00;;;;;;;27.33;15.30;;;0.90;99.90;;;;;;4998712;28;20219;-79
2023/01/21 00:45:25;;;;;;;26.37;13.80;;;0.80;99.90;;;;;;4998764;28;20422;-78
2023/01/21 00:47:51;;;;;;;20.97;12.27;;;0.90;99.90;;;;;;4998893;28;20220;-78
2023/01/21 00:50:16;;;;;;;28.43;13.93;;;0.90;99.90;;;;;;4999008;28;20181;-79
2023/01/21 00:52:42;;;;;;;26.77;15.10;;;1.00;99.90;;;;;;4998699;28;20215;-79
2023/01/21 00:55:07;;;;;;;25.73;15.00;;;1.00;99.90;;;;;;5016199;28;20180;-79
2023/01/21 00:57:33;;;;;;;26.50;14.37;;;1.00;99.90;;;;;;4998847;28;20538;-79
2023/01/21 00:59:59;;;;;;;22.27;13.97;;;1.10;99.90;;;;;;5015802;28;20189;-79
2023/01/21 01:02:24;;;;;;;21.97;12.53;;;1.10;99.90;;;;;;4998710;28;20173;-78
2023/01/21 01:04:50;;;;;;;20.53;13.50;;;1.20;99.90;;;;;;4998580;28;20786;-78
2023/01/21 01:07:15;;;;;;;23.33;15.93;;;1.20;99.90;;;;;;4998429;28;20277;-78
2023/01/21 01:09:50;;;;;;;22.10;14.43;;;1.20;99.90;;;;;;4998632;28;20536;-79
2023/01/21 01:12:15;;;;;;;23.43;14.67;;;1.30;99.90;;;;;;5014929;28;20190;-79
2023/01/21 01:14:41;;;;;;;27.47;16.93;;;1.20;99.90;;;;;;4998193;28;20474;-79
2023/01/21 01:17:08;;;;;;;21.13;14.37;;;1.20;99.90;;;;;;5014872;28;20237;-79
2023/01/21 01:19:33;;;;;;;26.50;14.63;;;1.20;99.90;;;;;;5015948;28;20186;-79
2023/01/21 01:21:58;;;;;;;25.53;17.67;;;1.30;99.90;;;;;;5004821;28;20434;-79
2023/01/21 01:24:24;;;;;;;27.90;14.30;;;1.20;99.90;;;;;;5013516;28;20180;-78
2023/01/21 01:26:49;;;;;;;29.77;15.20;;;1.20;99.90;;;;;;5001400;28;20228;-78
2023/01/21 01:29:15;;;;;;;28.37;13.80;;;1.30;99.90;;;;;;5001697;28;20220;-78
2023/01/21 01:31:42;;;;;;;26.07;14.23;;;1.30;99.90;;;;;;5000943;28;20182;-78
2023/01/21 01:34:07;;;;;;;23.30;14.73;;;1.30;99.90;;;;;;4995517;28;20644;-79
2023/01/21 01:36:33;;;;;;;22.33;14.33;;;1.30;99.90;;;;;;4995411;28;20527;-78
2023/01/21 01:38:59;;;;;;;28.70;14.00;;;1.30;99.90;;;;;;4995935;28;20651;-79
2023/01/21 01:41:28;;;;;;;23.13;14.30;;;1.30;99.90;;;;;;4995931;28;20660;-78
2023/01/21 01:44:00;;;;;;;25.90;13.90;;;1.30;99.90;;;;;;4995645;28;20198;-78
2023/01/21 01:46:31;;;;;;;25.77;15.50;;;1.30;99.90;;;;;;4995632;28;20827;-78
2023/01/21 01:49:14;;;;;;;21.73;12.20;;;1.20;99.90;;;;;;4995756;28;20526;-78
2023/01/21 01:51:40;;;;;;;27.20;15.77;;;1.20;99.90;;;;;;4996344;28;20411;-78
2023/01/21 01:54:08;;;;;;;22.97;12.63;;;1.20;99.90;;;;;;4995856;28;20418;-79
2023/01/21 01:56:36;;;;;;;19.80;13.27;;;1.20;99.90;;;;;;4995471;28;20178;-79
2023/01/21 01:59:01;;;;;;;24.47;15.53;;;1.30;99.90;;;;;;4995420;28;20411;-79
2023/01/21 02:01:27;;;;;;;19.93;12.80;;;1.40;99.90;;;;;;4978048;28;21053;-79
2023/01/21 02:03:58;;;;;;;22.40;13.30;;;1.30;99.90;;;;;;4984403;28;20529;-79
2023/01/21 02:06:24;;;;;;;26.03;13.87;;;1.30;99.90;;;;;;4997070;28;20199;-79
2023/01/21 02:08:50;;;;;;;22.10;15.10;;;1.30;99.90;;;;;;4996814;28;20522;-79
2023/01/21 02:11:19;;;;;;;22.30;13.23;;;1.40;99.90;;;;;;4996997;28;20465;-79
2023/01/21 02:13:52;;;;;;;23.97;12.20;;;1.40;99.90;;;;;;4997066;28;20445;-78
2023/01/21 02:16:31;;;;;;;20.73;11.80;;;1.40;99.90;;;;;;4997344;28;20440;-79
2023/01/21 02:19:08;;;;;;;30.07;16.23;;;1.50;99.90;;;;;;5014947;28;20419;-78
2023/01/21 02:22:00;;;;;;;19.30;12.33;;;1.50;99.90;;;;;;4997318;28;20504;-79
2023/01/21 02:25:03;;;;;;;19.57;12.30;;;1.50;99.90;;;;;;4995966;28;20788;-79
2023/01/21 02:27:51;;;;;;;28.40;15.80;;;1.50;99.90;;;;;;5013177;28;20479;-79
2023/01/21 02:30:49;;;;;;;25.87;13.70;;;1.50;99.90;;;;;;4994554;28;20406;-79
2023/01/21 02:33:33;;;;;;;22.87;15.47;;;1.50;99.90;;;;;;4994049;28;20823;-79
2023/01/21 02:36:13;;;;;;;32.13;15.27;;;1.50;99.90;;;;;;4994415;28;20454;-79
2023/01/21 02:39:00;;;;;;;23.67;14.57;;;1.60;99.90;;;;;;4989016;28;20929;-79
2023/01/21 02:41:35;;;;;;;24.17;13.90;;;1.50;99.90;;;;;;5003322;28;20460;-79
2023/01/21 02:44:25;;;;;;;26.67;15.73;;;1.50;99.90;;;;;;5012073;28;20423;-79
2023/01/21 02:47:08;;;;;;;23.30;15.90;;;1.40;99.90;;;;;;5002521;28;20466;-79
2023/01/21 02:49:39;;;;;;;23.17;13.03;;;1.40;99.90;;;;;;5007251;28;20545;-79
2023/01/21 02:52:05;;;;;;;20.40;12.93;;;1.40;99.90;;;;;;4995951;28;20472;-80
2023/01/21 02:54:40;;;;;;;25.43;13.50;;;1.40;99.90;;;;;;4996438;28;20422;-79
2023/01/21 02:57:16;;;;;;;22.40;14.47;;;1.40;99.90;;;;;;4996702;28;20251;-80
2023/01/21 02:59:47;;;;;;;22.03;13.87;;;1.40;99.90;;;;;;4996331;28;20410;-80
2023/01/21 03:02:45;;;;;;;27.13;14.03;;;1.40;99.90;;;;;;4996325;28;20461;-80
2023/01/21 03:05:18;;;;;;;22.97;13.90;;;1.30;99.90;;;;;;5013702;28;20832;-80
2023/01/21 03:07:57;;;;;;;30.23;16.30;;;1.40;99.90;;;;;;4996487;28;20477;-80
2023/01/21 03:10:30;;;;;;;22.50;13.17;;;1.40;99.90;;;;;;4996333;28;20925;-79
2023/01/21 03:13:04;;;;;;;21.50;12.90;;;1.40;99.90;;;;;;5013641;28;20436;-80
2023/01/21 03:18:28;;;;;;;26.73;14.07;;;1.40;99.90;;;;;;5013975;28;20401;-81
2023/01/21 03:20:57;;;;;;;26.10;14.17;;;1.30;99.90;;;;;;5013084;28;20436;-80
2023/01/21 03:23:28;;;;;;;22.67;12.40;;;1.40;99.90;;;;;;4995974;28;20422;-80
2023/01/21 03:25:56;;;;;;;25.53;14.80;;;1.40;99.90;;;;;;5013617;28;20460;-79
2023/01/21 03:28:25;;;;;;;27.13;13.30;;;1.40;99.90;;;;;;5013088;28;20478;-80
2023/01/21 03:30:56;;;;;;;24.33;12.87;;;1.40;99.90;;;;;;5013489;28;20906;-79
2023/01/21 03:33:23;;;;;;;20.20;12.50;;;1.50;99.90;;;;;;5013451;28;20426;-79
2023/01/21 03:35:52;;;;;;;23.57;14.10;;;1.50;99.90;;;;;;5013236;28;20460;-80
2023/01/21 03:38:33;;;;;;;30.37;14.10;;;1.40;99.90;;;;;;5013394;28;20973;-80
2023/01/21 03:41:12;;;;;;;25.70;13.50;;;1.40;99.90;;;;;;5013414;28;20832;-79
2023/01/21 03:43:38;;;;;;;25.60;12.90;;;1.50;99.90;;;;;;5013059;28;20434;-79
2023/01/21 03:46:14;;;;;;;26.67;15.80;;;1.50;99.90;;;;;;5012651;28;20525;-80
2023/01/21 03:48:42;;;;;;;27.90;13.77;;;1.50;99.90;;;;;;5013293;28;20793;-79
2023/01/21 03:51:13;;;;;;;22.67;14.07;;;1.40;99.90;;;;;;5012388;28;20453;-78
2023/01/21 03:53:39;;;;;;;18.80;13.30;;;1.50;99.90;;;;;;5013200;28;20412;-78
2023/01/21 03:56:04;;;;;;;24.00;14.37;;;1.60;99.90;;;;;;5012999;28;20488;-79
2023/01/21 03:58:30;;;;;;;26.87;12.30;;;1.60;99.90;;;;;;5012776;28;20178;-79
2023/01/21 04:00:56;;;;;;;25.20;12.37;;;1.60;99.90;;;;;;4995193;28;20186;-80
2023/01/21 04:03:22;;;;;;;23.77;11.10;;;1.70;99.90;;;;;;4995604;28;20179;-79
2023/01/21 04:05:47;;;;;;;25.80;14.50;;;1.60;99.90;;;;;;4995439;28;20414;-79
2023/01/21 04:08:13;;;;;;;25.30;15.77;;;1.60;99.90;;;;;;4995216;28;20273;-79
2023/01/21 04:10:38;;;;;;;25.23;12.30;;;1.70;99.90;;;;;;4995115;28;20167;-79
2023/01/21 04:13:04;;;;;;;26.73;13.27;;;1.60;99.90;;;;;;4994751;28;20178;-79
2023/01/21 04:15:29;;;;;;;22.50;12.80;;;1.60;99.90;;;;;;4994228;28;20184;-79
2023/01/21 04:17:57;;;;;;;22.50;11.93;;;1.60;99.90;;;;;;4995067;28;20182;-79
2023/01/21 04:20:23;;;;;;;24.77;13.80;;;1.60;99.90;;;;;;4994440;28;20178;-79
2023/01/21 04:22:48;;;;;;;19.43;10.57;;;1.60;99.90;;;;;;5012802;28;20412;-79
2023/01/21 04:25:14;;;;;;;16.67;10.47;;;1.70;99.90;;;;;;5012875;28;20174;-79
2023/01/21 04:27:39;;;;;;;24.37;11.90;;;1.50;99.90;;;;;;4994809;28;20214;-79
2023/01/21 04:30:05;;;;;;;23.70;12.63;;;1.50;99.90;;;;;;4995021;28;20657;-79
2023/01/21 04:32:32;;;;;;;26.93;14.50;;;1.50;99.90;;;;;;5012697;28;20261;-79
2023/01/21 04:34:57;;;;;;;23.50;12.10;;;1.60;99.90;;;;;;5012729;28;20418;-79
2023/01/21 04:37:23;;;;;;;23.43;14.47;;;1.60;99.90;;;;;;4994739;28;20516;-79
2023/01/21 04:39:48;;;;;;;19.27;11.70;;;1.50;99.90;;;;;;5012668;28;20246;-78
2023/01/21 04:42:14;;;;;;;25.50;15.33;;;1.50;99.90;;;;;;5011984;28;20187;-79
2023/01/21 04:44:39;;;;;;;24.17;12.43;;;1.50;99.90;;;;;;4994912;28;20695;-79
2023/01/21 04:47:05;;;;;;;24.50;14.17;;;1.40;99.90;;;;;;5011915;28;20211;-79
2023/01/21 04:49:30;;;;;;;28.47;14.00;;;1.40;99.90;;;;;;5012524;28;20182;-79
2023/01/21 04:51:56;;;;;;;18.50;12.93;;;1.40;99.90;;;;;;5012167;28;20198;-79
2023/01/21 04:54:21;;;;;;;25.60;12.90;;;1.50;99.90;;;;;;5012065;28;20179;-78
2023/01/21 04:56:47;;;;;;;20.03;13.93;;;1.50;99.90;;;;;;5012304;28;20634;-79
2023/01/21 04:59:12;;;;;;;22.67;12.40;;;1.50;99.90;;;;;;5012151;28;20245;-79
2023/01/21 05:01:38;;;;;;;27.67;13.70;;;1.40;99.90;;;;;;5012074;28;20258;-79
2023/01/21 05:04:03;;;;;;;25.73;13.10;;;1.40;99.90;;;;;;5012478;28;20172;-79
2023/01/21 05:06:29;;;;;;;24.07;13.13;;;1.30;99.90;;;;;;5012514;28;20207;-79
2023/01/21 05:08:55;;;;;;;23.63;14.10;;;1.40;99.90;;;;;;5013761;28;20701;-79
2023/01/21 05:11:20;;;;;;;24.37;12.53;;;1.40;99.90;;;;;;5016002;28;20662;-79
2023/01/21 05:13:46;;;;;;;21.87;12.50;;;1.40;99.90;;;;;;5015708;28;20595;-79
2023/01/21 05:16:13;;;;;;;19.17;12.30;;;1.30;99.90;;;;;;5013950;28;20171;-79
2023/01/21 05:18:47;;;;;;;25.43;14.90;;;1.40;99.90;;;;;;4998365;28;20183;-79
2023/01/21 05:21:13;;;;;;;16.10;11.90;;;1.60;99.90;;;;;;4997392;28;20511;-79
2023/01/21 05:23:38;;;;;;;28.70;13.23;;;1.60;99.90;;;;;;5015855;28;20428;-79
2023/01/21 05:26:04;;;;;;;19.57;13.20;;;1.60;99.90;;;;;;5015793;28;20379;-79
2023/01/21 05:28:29;;;;;;;23.27;13.43;;;1.60;99.90;;;;;;4997650;28;20216;-79
2023/01/21 05:30:59;;;;;;;27.93;13.87;;;1.60;99.90;;;;;;5015798;28;20178;-78
2023/01/21 05:33:29;;;;;;;24.80;11.90;;;1.60;99.90;;;;;;5015700;28;20183;-78
2023/01/21 05:35:55;;;;;;;20.13;12.40;;;1.70;99.90;;;;;;5015432;28;20459;-79
2023/01/21 05:38:20;;;;;;;22.63;12.97;;;1.70;99.90;;;;;;5015473;28;20427;-80
2023/01/21 05:40:46;;;;;;;24.13;12.73;;;1.60;99.90;;;;;;5015572;28;20259;-79
2023/01/21 05:43:11;;;;;;;26.13;13.40;;;1.60;99.90;;;;;;5013840;28;20178;-79
2023/01/21 05:45:37;;;;;;;22.27;13.00;;;1.60;99.90;;;;;;5014812;28;20550;-79
2023/01/21 05:48:03;;;;;;;28.67;14.17;;;1.60;99.90;;;;;;5015219;28;20210;-79
2023/01/21 05:50:28;;;;;;;21.03;12.87;;;1.60;99.90;;;;;;4996665;28;20166;-79
2023/01/21 05:52:53;;;;;;;25.03;13.70;;;1.60;99.90;;;;;;5015194;28;20471;-79
2023/01/21 05:55:19;;;;;;;21.70;12.60;;;1.60;99.90;;;;;;5015162;28;20182;-79
2023/01/21 05:57:44;;;;;;;22.57;13.67;;;1.70;99.90;;;;;;5014805;28;20178;-79
2023/01/21 06:00:10;;;;;;;21.97;12.30;;;1.70;99.90;;;;;;4997331;28;20186;-79
2023/01/21 06:02:36;;;;;;;25.40;13.80;;;1.70;99.90;;;;;;4997414;28;20206;-79
2023/01/21 06:05:01;;;;;;;17.97;9.97;;;1.70;99.90;;;;;;4997174;28;20445;-79
2023/01/21 06:07:27;;;;;;;20.00;12.00;;;1.70;99.90;;;;;;4997345;28;20217;-79
2023/01/21 06:09:53;;;;;;;19.20;11.10;;;1.70;99.90;;;;;;4997135;28;20167;-79
2023/01/21 06:12:18;;;;;;;25.60;10.20;;;1.60;99.90;;;;;;4996924;28;20177;-80
2023/01/21 06:14:44;;;;;;;20.40;10.00;;;1.50;99.90;;;;;;4997011;28;20180;-79
2023/01/21 06:17:09;;;;;;;20.77;10.83;;;1.60;99.90;;;;;;4996442;28;20183;-79
2023/01/21 06:19:35;;;;;;;27.87;13.03;;;1.60;99.90;;;;;;4995913;28;20635;-79
2023/01/21 06:22:00;;;;;;;21.63;11.20;;;1.60;99.90;;;;;;4995953;28;20188;-79
2023/01/21 06:24:25;;;;;;;21.30;10.77;;;1.60;99.90;;;;;;4996977;28;20175;-79
2023/01/21 06:26:52;;;;;;;22.70;12.13;;;1.60;99.90;;;;;;4996548;28;20209;-79
2023/01/21 06:29:17;;;;;;;22.83;11.60;;;1.60;99.90;;;;;;5014660;28;20569;-79
2023/01/21 06:31:43;;;;;;;19.43;9.73;;;1.60;99.90;;;;;;5014588;28;20448;-79
2023/01/21 06:34:11;;;;;;;29.57;12.37;;;1.50;99.90;;;;;;5014542;28;20263;-79
2023/01/21 06:36:37;;;;;;;27.53;12.57;;;1.60;99.90;;;;;;5014224;28;20221;-79
2023/01/21 06:39:02;;;;;;;28.30;13.43;;;1.60;99.90;;;;;;5014352;28;20503;-79
2023/01/21 06:41:28;;;;;;;20.47;11.90;;;1.60;99.90;;;;;;5013712;28;20181;-79
2023/01/21 06:43:53;;;;;;;24.97;11.83;;;1.70;99.90;;;;;;4996378;28;20191;-80
2023/01/21 06:46:19;;;;;;;26.37;12.97;;;1.60;99.90;;;;;;5013648;28;20184;-77
2023/01/21 06:48:45;;;;;;;21.37;10.90;;;1.60;99.90;;;;;;5014194;28;20234;-79
2023/01/21 06:51:10;;;;;;;24.57;13.00;;;1.60;99.90;;;;;;4995908;28;20181;-79
2023/01/21 06:53:35;;;;;;;20.80;12.47;;;1.70;99.90;;;;;;5014204;28;20820;-79
2023/01/21 06:56:01;;;;;;;24.40;12.00;;;1.60;99.90;;;;;;4996324;28;20263;-78
2023/01/21 06:58:26;;;;;;;21.17;9.80;;;1.60;99.90;;;;;;5013565;28;20250;-79
2023/01/21 07:00:55;;;;;;;18.00;11.50;;;1.70;99.90;;;;;;4996435;28;20510;-79
2023/01/21 07:03:21;;;;;;;22.50;11.87;;;1.60;99.90;;;;;;5014039;28;20245;-79
2023/01/21 07:05:46;;;;;;;23.73;13.80;;;1.70;99.90;;;;;;5014000;28;20519;-79
2023/01/21 07:08:12;;;;;;;21.03;11.80;;;1.70;99.90;;;;;;4996374;28;20222;-79
2023/01/21 07:10:37;;;;;;;25.00;12.40;;;1.70;99.90;;;;;;4996153;28;20171;-79
2023/01/21 07:13:03;;;;;;;24.00;11.80;;;1.60;99.90;;;;;;4995838;28;20199;-79
2023/01/21 07:15:29;;;;;;;23.20;12.77;;;1.60;99.90;;;;;;4995191;28;20286;-80
2023/01/21 07:17:55;;;;;;;26.90;13.10;;;1.60;99.90;;;;;;5013701;28;20214;-80
2023/01/21 07:20:21;;;;;;;22.40;10.30;;;1.60;99.90;;;;;;4995656;28;20418;-80
2023/01/21 07:22:47;;;;;;;28.37;12.23;;;1.70;99.90;;;;;;5013317;28;20253;-80
2023/01/21 07:25:12;;;;;;;21.50;11.10;;;1.60;99.90;;;;;;5013605;28;20905;-81
2023/01/21 07:27:40;;;;;;;19.20;11.33;;;1.50;99.90;;;;;;4995446;28;20310;-79
2023/01/21 07:30:06;;;;;;;19.80;12.00;;;1.40;99.90;;;;;;5013391;28;20178;-79
2023/01/21 07:32:32;;;;;;;27.73;14.67;;;1.50;99.90;;;;;;5013000;28;20406;-80
2023/01/21 07:34:57;;;;;;;21.20;11.97;;;1.60;99.90;;;;;;5013412;28;20472;-80
2023/01/21 07:37:23;;;;;;;23.80;13.07;;;1.50;99.90;;;;;;5013303;28;20318;-80
2023/01/21 07:39:48;;;;;;;23.30;12.93;;;1.50;99.90;;;;;;4995662;28;20237;-80
2023/01/21 07:42:14;;;;;;;22.13;11.20;;;1.50;99.90;;;;;;5012824;28;20361;-79
2023/01/21 07:44:39;;;;;;;20.03;10.97;;;1.50;99.90;;;;;;5013196;28;20178;-80
2023/01/21 07:47:05;;;;;;;23.83;12.50;;;1.50;99.90;;;;;;5012583;28;20301;-80
2023/01/21 07:49:33;;;;;;;25.73;13.10;;;1.50;99.90;;;;;;4995542;28;20175;-80
2023/01/21 07:51:59;;;;;;;23.50;13.00;;;1.60;99.90;;;;;;4994723;28;20184;-80
2023/01/21 07:54:24;;;;;;;27.27;11.77;;;1.70;99.90;;;;;;5013089;28;20483;-80
2023/01/21 07:56:50;;;;;;;25.97;13.07;;;1.70;99.90;;;;;;5011829;28;20183;-80
2023/01/21 07:59:15;;;;;;;25.80;14.23;;;1.70;99.90;;;;;;5012709;28;20169;-79
2023/01/21 08:01:41;;;;;;;24.17;12.80;;;1.70;99.90;;;;;;5013340;28;20727;-80
2023/01/21 08:04:08;;;;;;;30.23;15.03;;;1.70;99.90;;;;;;4995728;28;20754;-79
2023/01/21 08:06:36;;;;;;;26.77;12.80;;;1.80;99.90;;;;;;5013139;28;20537;-80
2023/01/21 08:09:03;;;;;;;23.70;12.90;;;1.80;99.90;;;;;;5012888;28;20427;-80
2023/01/21 08:11:28;;;;;;;25.93;14.00;;;1.90;99.90;;;;;;5013205;28;20402;-80
2023/01/21 08:13:53;;;;;;;21.90;11.00;;;1.90;99.90;;;;;;5012917;28;20795;-80
2023/01/21 08:16:19;;;;;;;28.27;12.20;;;1.90;99.90;;;;;;5013167;28;20173;-80
2023/01/21 08:18:45;;;;;;;26.80;12.67;;;1.90;99.90;;;;;;4995569;28;20190;-80
2023/01/21 08:21:10;;;;;;;21.73;11.93;;;2.00;99.90;;;;;;5011249;28;20651;-79
2023/01/21 08:23:36;;;;;;;26.57;14.40;;;1.90;99.90;;;;;;5013055;28;20250;-80
2023/01/21 08:26:04;;;;;;;23.63;13.37;;;1.90;99.90;;;;;;4995517;28;20177;-79
2023/01/21 08:28:32;;;;;;;29.20;14.27;;;1.90;99.90;;;;;;4994986;28;20329;-79
2023/01/21 08:31:06;;;;;;;26.20;13.70;;;2.00;99.90;;;;;;5013070;28;20469;-78
2023/01/21 08:33:32;;;;;;;27.93;12.17;;;2.00;99.90;;;;;;5013029;28;20490;-79
2023/01/21 08:35:59;;;;;;;23.97;13.97;;;2.00;99.90;;;;;;5012780;28;20541;-80
2023/01/21 08:38:25;;;;;;;22.77;14.27;;;2.00;99.90;;;;;;5013072;28;20180;-79
2023/01/21 08:40:50;;;;;;;27.43;13.17;;;2.00;99.90;;;;;;5012961;28;20910;-80
2023/01/21 08:43:16;;;;;;;26.87;11.43;;;2.00;99.90;;;;;;4995525;28;20171;-80
2023/01/21 08:45:41;;;;;;;22.90;12.43;;;2.00;99.90;;;;;;5016809;28;20175;-80
2023/01/21 08:48:07;;;;;;;27.23;15.40;;;2.00;99.90;;;;;;5016742;28;20240;-79
2023/01/21 08:50:33;;;;;;;29.40;14.53;;;2.00;99.90;;;;;;5016678;28;20502;-80
2023/01/21 08:53:01;;;;;;;29.83;14.17;;;2.10;99.90;;;;;;5016567;28;20418;-84
2023/01/21 08:55:27;;;;;;;28.13;14.40;;;2.00;99.90;;;;;;4958056;28;20678;-79
2023/01/21 08:57:54;;;;;;;28.93;12.57;;;2.00;99.90;;;;;;4998501;28;20427;-78
2023/01/21 09:00:23;;;;;;;24.87;12.40;;;2.10;99.90;;;;;;4998954;28;20179;-79
2023/01/21 09:02:49;;;;;;;26.93;14.47;;;2.10;99.90;;;;;;5016337;28;20898;-79
2023/01/21 09:05:15;;;;;;;26.30;13.30;;;2.10;99.90;;;;;;5016339;28;20418;-79
2023/01/21 09:07:40;;;;;;;24.50;12.23;;;2.10;99.90;;;;;;5016362;28;20499;-79
2023/01/21 09:10:07;;;;;;;33.20;14.60;;;2.10;99.90;;;;;;5016385;28;20616;-79
2023/01/21 09:12:32;;;;;;;26.30;12.37;;;2.10;99.90;;;;;;5015992;28;20227;-81
2023/01/21 09:14:58;;;;;;;29.37;12.80;;;2.20;99.90;;;;;;4998572;28;20863;-80
2023/01/21 09:17:23;;;;;;;30.50;12.40;;;2.10;99.90;;;;;;5016125;28;20265;-79
2023/01/21 09:19:49;;;;;;;26.23;12.80;;;2.10;99.90;;;;;;5015856;28;20179;-79
2023/01/21 09:22:15;;;;;;;29.47;12.47;;;2.10;99.90;;;;;;5015891;28;20190;-80
2023/01/21 09:24:41;;;;;;;26.23;12.83;;;2.10;99.90;;;;;;5016104;28;20551;-79
2023/01/21 09:27:07;;;;;;;30.27;15.17;;;2.20;99.90;;;;;;4998054;28;20546;-78
2023/01/21 09:29:33;;;;;;;20.10;12.03;;;2.20;99.90;;;;;;5016017;28;20177;-79
2023/01/21 09:31:59;;;;;;;28.03;12.37;;;2.20;99.90;;;;;;5015880;28;20409;-78
2023/01/21 09:34:25;;;;;;;21.83;12.37;;;2.30;99.90;;;;;;5015874;28;20784;-79
2023/01/21 09:36:53;;;;;;;26.67;13.37;;;2.40;99.90;;;;;;4998111;28;20552;-79
2023/01/21 09:39:18;;;;;;;30.33;14.60;;;2.30;99.90;;;;;;5015778;28;20163;-78
2023/01/21 09:41:49;;;;;;;26.83;11.90;;;2.30;99.90;;;;;;5015463;28;21040;-78
2023/01/21 09:44:39;;;;;;;28.50;13.30;;;2.40;99.90;;;;;;5015814;28;20229;-78
2023/01/21 09:47:27;;;;;;;22.20;12.27;;;2.40;99.90;;;;;;4998172;28;20997;-78
2023/01/21 09:50:04;;;;;;;23.17;13.17;;;2.60;99.90;;;;;;5015836;28;20473;-79
2023/01/21 09:52:42;;;;;;;25.80;12.70;;;2.60;99.90;;;;;;4997621;28;21048;-78
2023/01/21 09:55:26;;;;;;;20.03;12.23;;;2.60;99.90;;;;;;4961636;28;20477;-78
2023/01/21 09:58:05;;;;;;;26.37;12.10;;;2.70;99.90;;;;;;5015125;28;20410;-80
2023/01/21 10:00:43;;;;;;;32.47;14.37;;;2.80;99.90;;;;;;5015447;28;20490;-78
2023/01/21 10:03:36;;;;;;;24.37;12.00;;;2.80;99.90;;;;;;5015282;28;21017;-78
2023/01/21 10:06:14;;;;;;;34.93;14.00;;;2.90;99.90;;;;;;4989566;28;20419;-78
2023/01/21 10:09:04;;;;;;;26.97;13.90;;;3.00;99.90;;;;;;5007798;28;20500;-79
2023/01/21 10:11:56;;;;;;;35.53;13.80;;;3.00;99.90;;;;;;5013931;28;20453;-77
2023/01/21 10:14:36;;;;;;;24.63;12.27;;;3.00;99.90;;;;;;5013497;28;20419;-78
2023/01/21 10:17:32;;;;;;;24.83;12.33;;;3.10;99.90;;;;;;5015065;28;20421;-78
2023/01/21 10:20:25;;;;;;;28.43;13.53;;;3.10;99.90;;;;;;5015156;28;20783;-77
2023/01/21 10:23:00;;;;;;;29.77;12.70;;;3.20;99.90;;;;;;4985255;28;20461;-78
2023/01/21 10:25:32;;;;;;;31.90;14.33;;;3.20;99.90;;;;;;4977874;28;20415;-77
2023/01/21 10:28:03;;;;;;;29.93;14.53;;;3.40;99.90;;;;;;4995026;28;20512;-77
2023/01/21 10:30:42;;;;;;;31.80;15.10;;;3.50;99.90;;;;;;4995358;28;20407;-78
2023/01/21 10:33:31;;;;;;;29.27;13.20;;;3.50;99.90;;;;;;4995089;28;20974;-77
2023/01/21 10:36:08;;;;;;;30.60;14.13;;;3.60;99.90;;;;;;4994777;28;20459;-77
2023/01/21 10:38:43;;;;;;;27.00;13.57;;;3.50;99.90;;;;;;4977583;28;20415;-77
2023/01/21 10:41:33;;;;;;;28.50;14.20;;;3.70;99.90;;;;;;4994817;28;20780;-77
2023/01/21 10:44:26;;;;;;;27.70;13.87;;;3.70;99.90;;;;;;4995092;28;20838;-77
2023/01/21 10:47:15;;;;;;;32.37;16.83;;;3.80;99.90;;;;;;4977417;28;20500;-77
2023/01/21 10:49:48;;;;;;;23.93;12.33;;;3.80;99.90;;;;;;4994973;28;20407;-77
2023/01/21 10:52:30;;;;;;;25.43;13.83;;;3.90;99.90;;;;;;4994818;28;20827;-77
2023/01/21 10:55:19;;;;;;;26.13;13.87;;;3.80;99.90;;;;;;4977355;28;20428;-77
2023/01/21 10:57:57;;;;;;;29.40;13.17;;;4.00;99.90;;;;;;4997380;28;20478;-77
2023/01/21 11:00:33;;;;;;;30.17;14.37;;;3.90;99.90;;;;;;5010339;28;20430;-77
2023/01/21 11:03:10;;;;;;;23.93;13.07;;;3.90;99.90;;;;;;4962440;28;20430;-77
2023/01/21 11:05:37;;;;;;;26.87;11.23;;;4.00;99.90;;;;;;4993932;28;20430;-77
2023/01/21 11:08:03;;;;;;;27.20;13.77;;;4.00;99.90;;;;;;4993815;28;20576;-77
2023/01/21 11:10:29;;;;;;;21.80;12.67;;;4.10;99.90;;;;;;4994234;28;20511;-77
2023/01/21 11:12:55;;;;;;;26.50;12.63;;;4.10;99.90;;;;;;4994070;28;20513;-78
2023/01/21 11:15:22;;;;;;;24.37;11.40;;;4.10;99.90;;;;;;4994087;28;20461;-78
2023/01/21 11:17:52;;;;;;;21.60;11.80;;;4.10;99.90;;;;;;4993793;28;20450;-78
2023/01/21 11:20:28;;;;;;;24.80;11.80;;;4.10;99.90;;;;;;4994031;28;20761;-78
2023/01/21 11:22:54;;;;;;;21.63;11.60;;;4.10;99.90;;;;;;4994081;28;20884;-78
2023/01/21 11:25:42;;;;;;;24.80;12.10;;;4.00;99.90;;;;;;4976440;28;20574;-78
2023/01/21 11:28:23;;;;;;;18.23;9.50;;;4.10;99.90;;;;;;4966416;28;20221;-78
2023/01/21 11:30:49;;;;;;;18.60;11.00;;;4.10;99.90;;;;;;4992663;28;20422;-85
2023/01/21 11:33:26;;;;;;;21.43;11.70;;;4.10;99.90;;;;;;4997054;28;20488;-93
2023/01/21 11:35:53;;;;;;;19.37;9.97;;;4.00;99.90;;;;;;5013267;28;20212;-89
2023/01/21 11:38:32;;;;;;;23.17;12.03;;;4.10;99.90;;;;;;4995284;28;20427;-90
2023/01/21 11:41:10;;;;;;;18.77;9.90;;;4.10;99.90;;;;;;4996178;28;20478;-90
2023/01/21 11:43:45;;;;;;;19.00;9.40;;;4.20;99.90;;;;;;4995378;28;20770;-86
2023/01/21 11:46:35;;;;;;;24.93;10.60;;;4.20;99.90;;;;;;4995644;28;20477;-88
2023/01/21 11:49:07;;;;;;;14.43;7.90;;;4.20;99.90;;;;;;5012877;28;20436;-86
2023/01/21 11:51:46;;;;;;;21.20;10.53;;;4.20;99.90;;;;;;5014057;28;20443;-84
2023/01/21 11:54:22;;;;;;;17.77;8.20;;;4.20;99.90;;;;;;4993801;28;20449;-84
2023/01/21 11:57:01;;;;;;;18.70;8.63;;;4.30;99.90;;;;;;4996593;28;20233;-90
2023/01/21 11:59:34;;;;;;;14.47;7.40;;;4.40;64.60;;;;;;5013727;28;20413;-86
2023/01/21 12:02:14;;;;;;;13.60;7.10;;;4.50;1.00;;;;;;4964159;28;20436;-88
2023/01/21 12:04:54;;;;;;;15.10;8.43;;;4.60;1.00;;;;;;4977106;28;20480;-86
2023/01/21 12:07:24;;;;;;;15.30;7.37;;;4.70;1.00;;;;;;4978033;28;20468;-90
2023/01/21 12:10:03;;;;;;;14.27;7.23;;;4.70;1.00;;;;;;4977382;28;20429;-91
2023/01/21 12:13:00;;;;;;;12.50;6.83;;;4.60;1.00;;;;;;4976993;28;20441;-87
2023/01/21 12:15:50;;;;;;;13.70;5.60;;;4.70;1.00;;;;;;4992593;28;20417;-91
2023/01/21 12:18:48;;;;;;;13.00;6.80;;;4.80;1.00;;;;;;4979242;28;20921;-91
2023/01/21 12:21:56;;;;;;;16.50;8.37;;;4.80;1.00;;;;;;4980265;28;20426;-88
2023/01/21 12:24:40;;;;;;;11.23;5.80;;;4.60;99.90;;;;;;4984622;28;20417;-78
2023/01/21 12:27:42;;;;;;;14.80;7.10;;;4.60;1.00;;;;;;4996628;28;20471;-78
2023/01/21 12:30:36;;;;;;;15.43;7.20;;;4.60;1.00;;;;;;4997279;28;20409;-77
2023/01/21 12:33:20;;;;;;;13.70;7.27;;;4.60;1.00;;;;;;5005888;28;20473;-89
2023/01/21 12:35:53;;;;;;;11.77;6.27;;;5.30;1.00;;;;;;4995670;28;20484;-89
2023/01/21 12:38:23;;;;;;;12.57;6.87;;;5.70;1.00;;;;;;4996116;28;20460;-88
2023/01/21 12:41:04;;;;;;;13.80;7.00;;;5.60;99.90;;;;;;4995895;28;20430;-84
2023/01/21 12:43:39;;;;;;;13.00;7.47;;;5.60;1.00;;;;;;4997063;28;20418;-90
2023/01/21 12:46:15;;;;;;;13.50;6.90;;;5.50;1.00;;;;;;5016308;28;20425;-89
2023/01/21 12:48:43;;;;;;;11.00;6.13;;;5.30;1.00;;;;;;4982075;28;20560;-89
2023/01/21 12:51:24;;;;;;;11.20;6.07;;;5.00;1.00;;;;;;4997294;28;20426;-87
2023/01/21 12:54:00;;;;;;;13.17;6.40;;;4.60;37.90;;;;;;4987412;28;20929;-90
2023/01/21 12:56:38;;;;;;;11.67;6.50;;;4.90;29.90;;;;;;4996161;28;20508;-85
2023/01/21 12:59:26;;;;;;;13.53;8.47;;;5.10;1.00;;;;;;4996014;28;21000;-86